createdAt,value
2018-12-22T00:00:44.188Z,131.23
2018-12-22T00:03:48.936Z,150.17
2018-12-22T00:06:53.442Z,153.07
2018-12-22T00:09:58.046Z,154.77
2018-12-22T00:13:02.565Z,163.33
2018-12-22T00:16:07.266Z,179.47
2018-12-22T00:19:12.000Z,153.97
2018-12-22T00:22:16.637Z,162.63
2018-12-22T00:25:21.285Z,153.03
2018-12-22T00:28:25.881Z,156.47
2018-12-22T00:31:30.407Z,163.80
2018-12-22T00:34:34.917Z,158.77
2018-12-22T00:37:39.552Z,157.90
2018-12-22T00:40:44.195Z,157.93
2018-12-22T00:43:48.822Z,146.47
2018-12-22T00:46:53.397Z,154.00
2018-12-22T00:49:57.938Z,154.30
2018-12-22T00:53:02.596Z,162.27
2018-12-22T00:56:07.207Z,150.03
2018-12-22T00:59:11.820Z,136.83
2018-12-22T01:02:16.516Z,147.23
2018-12-22T01:05:21.047Z,128.83
2018-12-22T01:08:25.628Z,138.27
2018-12-22T01:11:30.170Z,136.03
2018-12-22T01:14:34.711Z,135.63
2018-12-22T01:17:39.340Z,133.87
2018-12-22T01:20:43.885Z,135.63
2018-12-22T01:23:48.463Z,122.30
2018-12-22T01:26:53.081Z,122.20
2018-12-22T01:29:57.618Z,131.80
2018-12-22T01:33:02.301Z,115.80
2018-12-22T01:36:06.947Z,129.03
2018-12-22T01:39:11.571Z,120.67
2018-12-22T01:42:16.115Z,117.20
2018-12-22T01:45:21.687Z,107.27
2018-12-22T01:48:26.184Z,116.30
2018-12-22T01:51:30.787Z,112.30
2018-12-22T01:54:35.323Z,115.70
2018-12-22T01:57:40.018Z,121.77
2018-12-22T02:00:44.692Z,116.13
2018-12-22T02:03:49.320Z,113.70
2018-12-22T02:06:53.861Z,119.37
2018-12-22T02:09:58.430Z,122.97
2018-12-22T02:13:03.034Z,112.27
2018-12-22T02:16:07.725Z,116.07
2018-12-22T02:19:12.325Z,124.53
2018-12-22T02:22:16.812Z,130.83
2018-12-22T02:25:21.365Z,122.37
2018-12-22T02:28:25.940Z,126.23
2018-12-22T02:31:30.905Z,130.47
2018-12-22T02:34:35.831Z,125.83
2018-12-22T02:37:40.898Z,114.00
2018-12-22T02:40:45.870Z,140.47
2018-12-22T02:43:50.669Z,133.97
2018-12-22T02:46:55.677Z,121.53
2018-12-22T02:50:00.510Z,122.47
2018-12-22T02:53:05.349Z,131.30
2018-12-22T02:56:10.268Z,118.83
2018-12-22T02:59:15.217Z,150.27
2018-12-22T03:02:20.153Z,136.00
2018-12-22T03:05:24.753Z,118.30
2018-12-22T03:08:29.354Z,127.27
2018-12-22T03:11:33.986Z,123.83
2018-12-22T03:14:38.625Z,123.20
2018-12-22T03:17:44.863Z,107.00
2018-12-22T03:20:49.808Z,124.47
2018-12-22T03:23:54.674Z,121.63
2018-12-22T03:26:59.345Z,119.53
2018-12-22T03:30:04.214Z,125.60
2018-12-22T03:33:09.135Z,114.33
2018-12-22T03:36:14.080Z,116.30
2018-12-22T03:39:19.112Z,109.00
2018-12-22T03:42:24.045Z,115.57
2018-12-22T03:45:28.981Z,114.60
2018-12-22T03:48:33.801Z,115.53
2018-12-22T03:51:38.867Z,111.00
2018-12-22T03:54:43.802Z,119.63
2018-12-22T03:57:48.565Z,103.97
2018-12-22T04:00:53.578Z,116.50
2018-12-22T04:03:58.554Z,108.47
2018-12-22T04:07:03.617Z,113.37
2018-12-22T04:10:08.887Z,116.33
2018-12-22T04:13:13.826Z,124.03
2018-12-22T04:16:18.718Z,116.87
2018-12-22T04:19:23.486Z,117.30
2018-12-22T04:22:28.544Z,112.17
2018-12-22T04:25:33.497Z,121.43
2018-12-22T04:28:38.515Z,111.90
2018-12-22T04:31:43.437Z,116.97
2018-12-22T04:34:48.377Z,119.90
2018-12-22T04:37:53.460Z,118.20
2018-12-22T04:40:58.356Z,117.23
2018-12-22T04:44:03.171Z,104.93
2018-12-22T04:47:08.341Z,111.80
2018-12-22T04:50:13.387Z,120.03
2018-12-22T04:53:18.273Z,113.67
2018-12-22T04:56:23.044Z,123.77
2018-12-22T04:59:28.092Z,114.90
2018-12-22T05:02:33.030Z,121.33
2018-12-22T05:05:38.043Z,119.23
2018-12-22T05:08:42.992Z,118.23
2018-12-22T05:11:48.014Z,121.10
2018-12-22T05:14:52.988Z,151.17
2018-12-22T05:17:57.731Z,142.47
2018-12-22T05:21:02.637Z,125.73
2018-12-22T05:24:07.505Z,131.57
2018-12-22T05:27:12.371Z,142.40
2018-12-22T05:30:17.312Z,122.90
2018-12-22T05:33:22.186Z,114.23
2018-12-22T05:36:27.124Z,131.37
2018-12-22T05:39:32.095Z,117.10
2018-12-22T05:42:37.137Z,109.00
2018-12-22T05:45:42.061Z,119.63
2018-12-22T05:48:46.999Z,122.03
2018-12-22T05:51:52.133Z,132.40
2018-12-22T05:54:57.194Z,112.10
2018-12-22T05:58:02.117Z,129.23
2018-12-22T06:01:06.953Z,113.03
2018-12-22T06:04:11.761Z,108.67
2018-12-22T06:07:16.289Z,105.00
2018-12-22T06:10:21.001Z,108.00
2018-12-22T06:13:25.724Z,121.67
2018-12-22T06:16:30.388Z,120.00
2018-12-22T06:19:34.989Z,127.50
2018-12-22T06:22:39.590Z,128.90
2018-12-22T06:25:44.194Z,120.17
2018-12-22T06:28:49.214Z,122.07
2018-12-22T06:31:54.157Z,122.43
2018-12-22T06:34:59.086Z,111.13
2018-12-22T06:38:04.040Z,108.07
2018-12-22T06:41:09.185Z,109.07
2018-12-22T06:44:14.260Z,104.77
2018-12-22T06:47:19.021Z,104.27
2018-12-22T06:50:24.113Z,100.40
2018-12-22T06:53:28.695Z,107.57
2018-12-22T06:56:33.421Z,97.63
2018-12-22T06:59:38.344Z,107.37
2018-12-22T07:02:43.422Z,115.60
2018-12-22T07:05:48.280Z,122.40
2018-12-22T07:08:53.118Z,128.17
2018-12-22T07:11:58.018Z,123.80
2018-12-22T07:15:02.879Z,112.93
2018-12-22T07:18:07.918Z,111.60
2018-12-22T07:21:12.833Z,125.40
2018-12-22T07:24:17.822Z,127.83
2018-12-22T07:27:22.425Z,109.27
2018-12-22T07:30:27.053Z,128.40
2018-12-22T07:33:32.073Z,116.10
2018-12-22T07:36:37.018Z,119.63
2018-12-22T07:39:41.878Z,123.63
2018-12-22T07:42:47.414Z,122.70
2018-12-22T07:45:52.050Z,130.97
2018-12-22T07:48:56.843Z,122.60
2018-12-22T07:52:02.734Z,128.97
2018-12-22T07:55:07.495Z,136.93
2018-12-22T07:58:12.100Z,136.83
2018-12-22T08:01:16.742Z,140.20
2018-12-22T08:04:21.320Z,128.53
2018-12-22T08:07:26.006Z,121.53
2018-12-22T08:10:30.621Z,150.70
2018-12-22T08:13:35.241Z,128.77
2018-12-22T08:16:39.748Z,144.03
2018-12-22T08:19:44.443Z,150.17
2018-12-22T08:22:49.083Z,147.63
2018-12-22T08:25:53.646Z,153.53
2018-12-22T08:28:58.269Z,143.83
2018-12-22T08:32:03.021Z,142.60
2018-12-22T08:35:07.792Z,137.27
2018-12-22T08:38:12.489Z,138.47
2018-12-22T08:41:17.122Z,127.23
2018-12-22T08:44:21.735Z,131.03
2018-12-22T08:47:26.261Z,157.93
2018-12-22T08:50:30.819Z,127.07
2018-12-22T08:53:35.420Z,124.83
2018-12-22T08:56:40.014Z,134.13
2018-12-22T08:59:44.615Z,142.83
2018-12-22T09:02:49.297Z,133.87
2018-12-22T09:05:53.825Z,155.13
2018-12-22T09:08:58.446Z,144.07
2018-12-22T09:12:03.151Z,164.30
2018-12-22T09:15:09.111Z,143.03
2018-12-22T09:18:13.746Z,146.27
2018-12-22T09:21:18.264Z,123.37
2018-12-22T09:24:22.864Z,136.13
2018-12-22T09:27:27.641Z,128.03
2018-12-22T09:30:32.330Z,125.87
2018-12-22T09:33:36.905Z,127.83
2018-12-22T09:36:42.621Z,137.50
2018-12-22T09:39:47.201Z,132.20
2018-12-22T09:42:51.833Z,118.07
2018-12-22T09:45:56.518Z,145.03
2018-12-22T09:49:01.067Z,139.30
2018-12-22T09:52:05.977Z,138.33
2018-12-22T09:55:10.696Z,137.77
2018-12-22T09:58:15.279Z,146.07
2018-12-22T10:01:19.905Z,140.83
2018-12-22T10:04:24.747Z,151.50
2018-12-22T10:07:29.821Z,156.10
2018-12-22T10:10:34.411Z,171.23
2018-12-22T10:13:40.162Z,168.97
2018-12-22T10:16:44.683Z,162.93
2018-12-22T10:19:49.263Z,185.67
2018-12-22T10:22:53.918Z,200.63
2018-12-22T10:25:58.644Z,187.00
2018-12-22T10:29:03.270Z,184.30
2018-12-22T10:32:07.903Z,186.03
2018-12-22T10:35:22.852Z,195.83
2018-12-22T10:38:27.475Z,192.60
2018-12-22T10:41:32.077Z,187.40
2018-12-22T10:44:36.635Z,177.83
2018-12-22T10:47:41.203Z,199.73
2018-12-22T10:50:46.042Z,188.63
2018-12-22T10:53:51.071Z,204.93
2018-12-22T10:56:55.669Z,209.10
2018-12-22T11:00:00.321Z,198.10
2018-12-22T11:03:05.077Z,207.37
2018-12-22T11:06:09.720Z,208.03
2018-12-22T11:09:17.393Z,212.33
2018-12-22T11:12:21.921Z,222.40
2018-12-22T11:15:26.672Z,218.00
2018-12-22T11:18:31.277Z,199.60
2018-12-22T11:21:35.895Z,206.97
2018-12-22T11:24:41.141Z,188.03
2018-12-22T11:27:45.774Z,213.23
2018-12-22T11:30:50.262Z,209.93
2018-12-22T11:33:55.038Z,175.23
2018-12-22T11:36:59.655Z,188.53
2018-12-22T11:40:04.443Z,185.97
2018-12-22T11:43:09.213Z,215.70
2018-12-22T11:46:13.840Z,199.50
2018-12-22T11:49:39.679Z,203.30
2018-12-22T11:52:44.242Z,195.10
2018-12-22T11:55:48.900Z,233.17
2018-12-22T11:58:53.722Z,215.27
2018-12-22T12:01:58.311Z,213.63
2018-12-22T12:05:03.109Z,199.47
2018-12-22T12:08:07.879Z,179.80
2018-12-22T12:11:12.620Z,189.33
2018-12-22T12:14:17.185Z,195.07
2018-12-22T12:17:41.235Z,220.87
2018-12-22T12:20:45.859Z,195.60
2018-12-22T12:23:50.491Z,186.50
2018-12-22T12:26:55.160Z,203.77
2018-12-22T12:29:59.609Z,183.43
2018-12-22T12:33:04.277Z,167.67
2018-12-22T12:36:08.860Z,168.17
2018-12-22T12:39:15.215Z,184.50
2018-12-22T12:42:19.813Z,165.37
2018-12-22T12:45:24.512Z,156.23
2018-12-22T12:48:29.221Z,144.57
2018-12-22T12:51:33.903Z,135.93
2018-12-22T12:54:38.556Z,143.33
2018-12-22T12:57:43.172Z,158.13
2018-12-22T13:00:47.687Z,167.17
2018-12-22T13:03:52.434Z,154.13
2018-12-22T13:06:57.039Z,163.87
2018-12-22T13:10:01.789Z,158.13
2018-12-22T13:13:13.134Z,146.97
2018-12-22T13:16:17.719Z,143.17
2018-12-22T13:19:22.414Z,148.23
2018-12-22T13:22:27.005Z,133.67
2018-12-22T13:25:32.116Z,137.43
2018-12-22T13:28:36.926Z,150.23
2018-12-22T13:31:42.856Z,129.37
2018-12-22T13:34:48.260Z,111.40
2018-12-22T13:37:52.915Z,100.20
2018-12-22T13:40:57.539Z,119.47
2018-12-22T13:44:02.026Z,109.30
2018-12-22T13:47:06.752Z,107.60
2018-12-22T13:50:11.732Z,102.40
2018-12-22T13:53:16.583Z,118.10
2018-12-22T13:56:21.309Z,104.53
2018-12-22T13:59:25.958Z,102.67
2018-12-22T14:02:32.206Z,99.53
2018-12-22T14:05:37.162Z,116.07
2018-12-22T14:08:41.904Z,121.43
2018-12-22T14:11:46.562Z,118.33
2018-12-22T14:14:51.270Z,111.70
2018-12-22T14:18:09.509Z,115.93
2018-12-22T14:21:14.670Z,112.77
2018-12-22T14:24:31.097Z,205.43
2018-12-22T14:27:35.699Z,130.03
2018-12-22T14:30:40.393Z,125.50
2018-12-22T14:33:45.336Z,136.00
2018-12-22T14:36:50.069Z,140.10
2018-12-22T14:39:54.648Z,148.30
2018-12-22T14:42:59.257Z,163.30
2018-12-22T14:46:03.843Z,180.43
2018-12-22T14:49:08.549Z,160.00
2018-12-22T14:52:13.377Z,160.63
2018-12-22T14:55:18.057Z,152.10
2018-12-22T14:58:25.733Z,147.23
2018-12-22T15:01:30.331Z,157.37
2018-12-22T15:04:35.071Z,158.63
2018-12-22T15:07:39.669Z,157.43
2018-12-22T15:10:44.444Z,152.40
2018-12-22T15:13:49.073Z,144.87
2018-12-22T15:16:53.708Z,143.33
2018-12-22T15:19:58.382Z,142.27
2018-12-22T15:23:05.364Z,138.50
2018-12-22T15:26:09.951Z,150.73
2018-12-22T15:29:14.542Z,150.70
2018-12-22T15:32:19.389Z,151.97
2018-12-22T15:35:24.086Z,151.03
2018-12-22T15:38:28.718Z,158.43
2018-12-22T15:41:33.529Z,147.47
2018-12-22T15:44:38.129Z,145.53
2018-12-22T15:47:43.918Z,195.67
2018-12-22T15:50:49.277Z,231.37
2018-12-22T15:53:53.950Z,185.10
2018-12-22T15:56:58.830Z,175.03
2018-12-22T16:00:03.686Z,174.20
2018-12-22T16:03:08.453Z,188.10
2018-12-22T16:06:13.097Z,165.87
2018-12-22T16:09:17.585Z,178.13
2018-12-22T16:12:22.349Z,171.83
2018-12-22T16:15:27.433Z,163.00
2018-12-22T16:18:32.205Z,162.50
2018-12-22T16:21:36.969Z,186.17
2018-12-22T16:24:41.695Z,173.80
2018-12-22T16:27:46.700Z,192.77
2018-12-22T16:30:55.106Z,200.13
2018-12-22T16:33:59.668Z,217.40
2018-12-22T16:37:04.195Z,202.70
2018-12-22T16:40:10.285Z,208.43
2018-12-22T16:43:16.451Z,216.37
2018-12-22T16:46:21.054Z,212.03
2018-12-22T16:49:25.699Z,202.60
2018-12-22T16:52:30.458Z,199.73
2018-12-22T16:55:35.161Z,190.03
2018-12-22T16:58:41.861Z,178.90
2018-12-22T17:02:07.306Z,161.10
2018-12-22T17:05:12.045Z,154.07
2018-12-22T17:08:16.769Z,170.20
2018-12-22T17:11:21.366Z,181.70
2018-12-22T17:14:27.250Z,182.70
2018-12-22T17:17:31.864Z,211.30
2018-12-22T17:20:36.476Z,195.27
2018-12-22T17:23:52.553Z,181.10
2018-12-22T17:26:58.607Z,166.53
2018-12-22T17:30:03.381Z,163.37
2018-12-22T17:33:08.033Z,158.97
2018-12-22T17:36:12.697Z,158.37
2018-12-22T17:39:18.082Z,159.10
2018-12-22T17:42:22.698Z,173.27
2018-12-22T17:45:27.385Z,156.40
2018-12-22T17:48:32.162Z,141.20
2018-12-22T17:51:36.988Z,141.90
2018-12-22T17:54:41.632Z,145.57
2018-12-22T17:57:46.345Z,154.33
2018-12-22T18:00:50.965Z,148.03
2018-12-22T18:03:55.628Z,156.60
2018-12-22T18:07:00.189Z,169.53
2018-12-22T18:10:05.393Z,179.63
2018-12-22T18:13:09.973Z,170.47
2018-12-22T18:16:14.566Z,176.80
2018-12-22T18:19:19.252Z,196.13
2018-12-22T18:22:23.963Z,175.37
2018-12-22T18:25:28.654Z,169.20
2018-12-22T18:28:33.268Z,163.70
2018-12-22T18:31:37.900Z,158.10
2018-12-22T18:34:42.510Z,146.07
2018-12-22T18:37:47.073Z,125.07
2018-12-22T18:40:51.670Z,165.03
2018-12-22T18:43:56.312Z,130.93
2018-12-22T18:47:01.013Z,138.63
2018-12-22T18:50:08.849Z,128.27
2018-12-22T18:53:13.501Z,128.47
2018-12-22T18:56:18.006Z,147.07
2018-12-22T18:59:23.722Z,167.97
2018-12-22T19:02:28.349Z,211.07
2018-12-22T19:05:32.979Z,207.27
2018-12-22T19:08:37.579Z,200.90
2018-12-22T19:11:42.163Z,194.90
2018-12-22T19:14:53.692Z,173.43
2018-12-22T19:17:58.317Z,180.97
2018-12-22T19:21:02.867Z,165.17
2018-12-22T19:24:07.468Z,176.67
2018-12-22T19:27:12.005Z,170.37
2018-12-22T19:30:16.689Z,154.63
2018-12-22T19:33:21.398Z,167.57
2018-12-22T19:36:25.993Z,154.50
2018-12-22T19:39:30.705Z,155.63
2018-12-22T19:42:35.485Z,162.13
2018-12-22T19:45:40.095Z,159.73
2018-12-22T19:48:44.714Z,165.37
2018-12-22T19:51:49.387Z,150.70
2018-12-22T19:54:54.007Z,152.93
2018-12-22T19:57:58.620Z,172.97
2018-12-22T20:01:03.242Z,167.10
2018-12-22T20:04:07.830Z,170.50
2018-12-22T20:07:12.422Z,173.30
2018-12-22T20:10:16.949Z,185.30
2018-12-22T20:13:21.591Z,182.53
2018-12-22T20:16:26.217Z,290.30
2018-12-22T20:19:30.769Z,159.97
2018-12-22T20:22:35.489Z,174.70
2018-12-22T20:25:40.138Z,160.10
2018-12-22T20:28:44.813Z,163.47
2018-12-22T20:31:49.350Z,214.97
2018-12-22T20:34:53.973Z,129.47
2018-12-22T20:37:58.494Z,143.33
2018-12-22T20:41:03.150Z,144.50
2018-12-22T20:44:07.780Z,142.93
2018-12-22T20:47:12.234Z,164.33
2018-12-22T20:50:16.907Z,163.17
2018-12-22T20:53:21.523Z,167.53
2018-12-22T20:56:26.074Z,159.27
2018-12-22T20:59:30.614Z,154.00
2018-12-22T21:02:35.255Z,138.10
2018-12-22T21:05:45.900Z,172.97
2018-12-22T21:08:50.589Z,135.43
2018-12-22T21:11:55.138Z,153.77
2018-12-22T21:14:59.710Z,144.60
2018-12-22T21:18:05.466Z,158.77
2018-12-22T21:21:10.093Z,137.53
2018-12-22T21:24:14.809Z,131.03
2018-12-22T21:27:19.473Z,119.57
2018-12-22T21:30:24.090Z,136.20
2018-12-22T21:33:28.829Z,135.77
2018-12-22T21:36:33.499Z,138.90
2018-12-22T21:39:38.366Z,110.57
2018-12-22T21:42:43.145Z,110.43
2018-12-22T21:45:47.838Z,119.93
2018-12-22T21:48:52.458Z,111.57
2018-12-22T21:51:57.058Z,105.50
2018-12-22T21:55:01.641Z,115.97
2018-12-22T21:58:06.298Z,115.90
2018-12-22T22:01:10.868Z,118.50
2018-12-22T22:04:15.485Z,118.27
2018-12-22T22:07:20.162Z,182.50
2018-12-22T22:10:24.894Z,143.40
2018-12-22T22:13:29.583Z,134.30
2018-12-22T22:16:34.193Z,205.67
2018-12-22T22:19:38.789Z,147.20
2018-12-22T22:22:43.293Z,130.53
2018-12-22T22:25:47.871Z,118.00
2018-12-22T22:28:52.449Z,136.87
2018-12-22T22:31:57.078Z,117.63
2018-12-22T22:35:01.724Z,133.30
2018-12-22T22:38:06.369Z,117.17
2018-12-22T22:41:10.984Z,128.27
2018-12-22T22:44:15.497Z,106.97
2018-12-22T22:47:20.012Z,101.27
2018-12-22T22:50:24.598Z,118.53
2018-12-22T22:53:29.135Z,109.17
2018-12-22T22:56:33.761Z,102.50
2018-12-22T22:59:38.258Z,107.07
2018-12-22T23:02:42.860Z,111.03
2018-12-22T23:05:47.474Z,106.00
2018-12-22T23:08:52.078Z,97.40
2018-12-22T23:11:56.717Z,94.40
2018-12-22T23:15:01.358Z,85.53
2018-12-22T23:18:06.201Z,105.27
2018-12-22T23:21:10.965Z,97.47
2018-12-22T23:24:15.973Z,101.83
2018-12-22T23:27:20.596Z,95.93
2018-12-22T23:30:25.154Z,103.20
2018-12-22T23:33:29.744Z,251.37
2018-12-22T23:36:34.381Z,158.13
2018-12-22T23:39:39.096Z,149.00
2018-12-22T23:42:43.697Z,105.20
2018-12-22T23:45:48.277Z,121.23
2018-12-22T23:48:52.745Z,120.07
2018-12-22T23:51:57.372Z,105.77
2018-12-22T23:55:02.049Z,110.33
2018-12-22T23:58:06.662Z,119.57
